Time;durP1;ratioP1;P1;durP2;ratioP2;P2;SDS_P1;SDS_P2;PMS_P1;PMS_P2;Temp;Humidity;BMP_temperature;BMP_pressure;BME280_temperature;BME280_humidity;BME280_pressure;Samples;Min_cycle;Max_cycle;Signal;HPM_P1;HPM_P2
2023/08/25 00:01:48;;;;;;;54.13;44.50;;;20.00;99.90;;;;;;4966311;28;38436;-75
2023/08/25 00:04:14;;;;;;;56.50;43.67;;;20.00;99.90;;;;;;4959874;28;37336;-75
2023/08/25 00:06:40;;;;;;;49.33;40.88;;;20.00;99.90;;;;;;4965777;28;39454;-75
2023/08/25 00:09:07;;;;;;;55.88;46.50;;;20.00;99.90;;;;;;4964764;28;37899;-75
2023/08/25 00:11:33;;;;;;;50.25;44.67;;;20.00;99.90;;;;;;4962121;28;36965;-74
2023/08/25 00:13:59;;;;;;;58.25;48.92;;;20.00;99.90;;;;;;4962446;28;37591;-74
2023/08/25 00:16:25;;;;;;;59.53;49.03;;;20.00;99.90;;;;;;4979731;28;39765;-75
2023/08/25 00:18:51;;;;;;;63.67;50.20;;;20.00;99.90;;;;;;4984943;28;39022;-74
2023/08/25 00:21:17;;;;;;;63.67;49.03;;;20.00;99.90;;;;;;4977193;28;38575;-74
2023/08/25 00:23:44;;;;;;;69.35;52.15;;;20.00;99.90;;;;;;4978135;28;37327;-75
2023/08/25 00:26:10;;;;;;;64.90;48.35;;;20.00;99.90;;;;;;4983053;28;39686;-74
2023/08/25 00:28:36;;;;;;;77.47;55.30;;;20.00;99.90;;;;;;4986398;28;37520;-74
2023/08/25 00:31:02;;;;;;;80.68;54.40;;;20.00;99.90;;;;;;4975483;28;39200;-75
2023/08/25 00:33:28;;;;;;;84.20;56.20;;;19.90;99.90;;;;;;4965527;28;37721;-74
2023/08/25 00:35:54;;;;;;;63.78;48.30;;;19.80;99.90;;;;;;4968197;28;37866;-74
2023/08/25 00:38:20;;;;;;;64.43;48.55;;;19.80;99.90;;;;;;4981593;28;38723;-74
2023/08/25 00:40:46;;;;;;;66.95;50.38;;;19.80;99.90;;;;;;4981870;28;37770;-75
2023/08/25 00:43:12;;;;;;;61.38;47.17;;;19.90;99.90;;;;;;4982924;28;37595;-74
2023/08/25 00:45:42;;;;;;;60.58;46.97;;;19.80;99.90;;;;;;4985289;28;39755;-75
2023/08/25 00:48:10;;;;;;;61.63;48.35;;;19.80;99.90;;;;;;4979559;28;37824;-76
2023/08/25 00:50:37;;;;;;;88.32;59.00;;;19.80;99.90;;;;;;4981008;28;36444;-74
2023/08/25 00:53:05;;;;;;;75.47;54.58;;;19.80;99.90;;;;;;4978779;28;37436;-74
2023/08/25 00:55:32;;;;;;;69.18;53.90;;;19.80;99.90;;;;;;4981969;28;38568;-75
2023/08/25 00:57:59;;;;;;;77.93;55.58;;;19.80;99.90;;;;;;4968802;28;38867;-75
2023/08/25 01:03:01;;;;;;;84.10;57.22;;;19.70;99.90;;;;;;5315425;23;20058;-74
2023/08/25 01:05:27;;;;;;;75.43;55.28;;;19.70;99.90;;;;;;4982521;28;48217;-74
2023/08/25 01:07:53;;;;;;;79.45;56.65;;;19.70;99.90;;;;;;4987437;28;39508;-74
2023/08/25 01:10:35;;;;;;;62.92;49.58;;;19.70;99.90;;;;;;4988854;28;37336;-74
2023/08/25 01:13:10;;;;;;;64.80;51.58;;;19.70;99.90;;;;;;4984896;28;36260;-75
2023/08/25 01:15:42;;;;;;;75.45;54.72;;;19.70;99.90;;;;;;4988628;28;38969;-74
2023/08/25 01:18:15;;;;;;;65.25;47.70;;;19.80;99.90;;;;;;4985160;28;38970;-73
2023/08/25 01:20:42;;;;;;;62.83;49.15;;;19.70;99.90;;;;;;4988356;28;39027;-74
2023/08/25 01:23:28;;;;;;;70.90;52.85;;;19.80;99.90;;;;;;4985745;28;36869;-73
2023/08/25 01:25:55;;;;;;;68.50;52.28;;;19.80;99.90;;;;;;4976634;28;38518;-74
2023/08/25 01:28:21;;;;;;;67.05;51.65;;;19.80;99.90;;;;;;4975687;28;39294;-73
2023/08/25 01:30:49;;;;;;;59.17;46.55;;;19.80;99.90;;;;;;4978227;28;38907;-74
2023/08/25 01:33:16;;;;;;;63.28;48.00;;;19.70;99.90;;;;;;4969832;28;37229;-73
2023/08/25 01:35:51;;;;;;;76.18;53.60;;;19.80;99.90;;;;;;4987353;28;38168;-74
2023/08/25 01:38:28;;;;;;;65.80;49.28;;;19.80;99.90;;;;;;4978015;28;39970;-74
2023/08/25 01:41:14;;;;;;;63.90;47.80;;;19.70;99.90;;;;;;4985665;28;37464;-75
2023/08/25 01:43:47;;;;;;;68.88;53.38;;;19.70;99.90;;;;;;4970260;28;48746;-74
2023/08/25 01:46:15;;;;;;;89.25;58.30;;;19.70;99.90;;;;;;4976985;28;38033;-75
2023/08/25 01:48:43;;;;;;;99.80;60.80;;;19.70;99.90;;;;;;4995361;28;37524;-74
2023/08/25 01:51:11;;;;;;;76.68;53.88;;;19.70;99.90;;;;;;4980481;28;39772;-74
2023/08/25 01:53:38;;;;;;;91.68;56.67;;;19.70;99.90;;;;;;4979909;28;37564;-75
2023/08/25 01:56:04;;;;;;;72.40;53.42;;;19.70;99.90;;;;;;4979936;28;38469;-75
2023/08/25 01:58:30;;;;;;;70.00;50.25;;;19.70;99.90;;;;;;4987847;28;40347;-75
2023/08/25 02:00:56;;;;;;;81.07;55.88;;;19.70;99.90;;;;;;4986239;28;38356;-75
2023/08/25 02:03:22;;;;;;;77.25;53.78;;;19.70;99.90;;;;;;4982870;28;37270;-75
2023/08/25 02:05:48;;;;;;;82.72;57.38;;;19.70;99.90;;;;;;4987153;28;40384;-75
2023/08/25 02:08:14;;;;;;;84.97;57.45;;;19.70;99.90;;;;;;4984997;28;39013;-75
2023/08/25 02:10:40;;;;;;;80.97;56.25;;;19.70;99.90;;;;;;4984116;28;37482;-75
2023/08/25 02:13:06;;;;;;;79.32;56.15;;;19.70;99.90;;;;;;4985482;28;36826;-75
2023/08/25 02:15:33;;;;;;;84.95;57.28;;;19.70;99.90;;;;;;4989196;28;39293;-77
2023/08/25 02:17:59;;;;;;;86.00;56.63;;;19.70;99.90;;;;;;4977033;28;38536;-74
2023/08/25 02:20:25;;;;;;;93.45;58.38;;;19.70;99.90;;;;;;4976557;28;37665;-75
2023/08/25 02:22:52;;;;;;;114.57;60.78;;;19.70;99.90;;;;;;4983832;28;36203;-75
2023/08/25 02:25:18;;;;;;;81.03;56.95;;;19.80;99.90;;;;;;4973471;28;38833;-75
2023/08/25 02:27:44;;;;;;;107.43;60.90;;;19.80;99.90;;;;;;4975112;28;39267;-76
2023/08/25 02:30:10;;;;;;;84.57;55.50;;;19.80;99.90;;;;;;4972940;28;37864;-76
2023/08/25 02:32:36;;;;;;;96.57;56.78;;;19.90;99.90;;;;;;4975068;28;36280;-76
2023/08/25 02:35:03;;;;;;;139.52;65.65;;;19.80;99.90;;;;;;4976314;28;38493;-76
2023/08/25 02:37:29;;;;;;;91.50;57.30;;;19.80;99.90;;;;;;4978355;28;46741;-75
2023/08/25 02:39:55;;;;;;;102.30;59.50;;;19.80;99.90;;;;;;4984734;28;38075;-74
2023/08/25 02:42:21;;;;;;;102.55;60.88;;;19.80;99.90;;;;;;4984508;28;37222;-74
2023/08/25 02:44:47;;;;;;;120.13;62.72;;;19.80;99.90;;;;;;4982508;28;39644;-74
2023/08/25 02:47:13;;;;;;;120.22;62.80;;;19.80;99.90;;;;;;4978066;28;38057;-74
2023/08/25 02:49:40;;;;;;;99.63;58.92;;;19.80;99.90;;;;;;4984721;28;38809;-75
2023/08/25 02:52:06;;;;;;;121.18;62.65;;;19.80;99.90;;;;;;4985966;28;37745;-74
2023/08/25 02:54:32;;;;;;;105.28;59.55;;;19.90;99.90;;;;;;4985225;28;38576;-74
2023/08/25 02:56:58;;;;;;;101.90;56.17;;;19.80;99.90;;;;;;4977114;28;38797;-74
2023/08/25 02:59:24;;;;;;;107.68;57.85;;;19.80;99.90;;;;;;4978412;28;38965;-74
2023/08/25 03:01:51;;;;;;;100.30;56.80;;;19.80;99.90;;;;;;4975480;28;37582;-73
2023/08/25 03:04:17;;;;;;;133.25;60.30;;;19.80;99.90;;;;;;4975548;28;37669;-74
2023/08/25 03:06:44;;;;;;;124.90;59.60;;;19.80;99.90;;;;;;4977356;28;38414;-74
2023/08/25 03:09:10;;;;;;;98.22;54.38;;;19.90;99.90;;;;;;4975096;28;38105;-73
2023/08/25 03:11:36;;;;;;;116.75;57.72;;;19.90;99.90;;;;;;4978478;28;37080;-74
2023/08/25 03:14:02;;;;;;;104.93;56.30;;;19.90;99.90;;;;;;4977909;28;38598;-74
2023/08/25 03:16:28;;;;;;;136.55;59.97;;;19.90;99.90;;;;;;4970990;28;38038;-74
2023/08/25 03:18:54;;;;;;;107.28;57.90;;;19.90;99.90;;;;;;4974632;28;37888;-74
2023/08/25 03:21:20;;;;;;;91.65;52.75;;;19.90;99.90;;;;;;4977364;28;37154;-74
2023/08/25 03:23:46;;;;;;;123.10;60.40;;;19.80;99.90;;;;;;4977137;28;38676;-74
2023/08/25 03:26:13;;;;;;;117.80;59.05;;;19.80;99.90;;;;;;4977739;28;38530;-74
2023/08/25 03:28:39;;;;;;;112.78;56.38;;;19.90;99.90;;;;;;4977745;28;37585;-74
2023/08/25 03:31:05;;;;;;;104.82;56.47;;;19.80;99.90;;;;;;4977195;28;37231;-74
2023/08/25 03:33:31;;;;;;;155.75;64.93;;;19.90;99.90;;;;;;4978425;28;38057;-73
2023/08/25 03:35:57;;;;;;;114.97;59.15;;;19.90;99.90;;;;;;4977424;28;37771;-74
2023/08/25 03:38:23;;;;;;;96.28;50.17;;;19.90;99.90;;;;;;4976422;28;37496;-74
2023/08/25 03:40:57;;;;;;;83.82;47.40;;;19.90;99.90;;;;;;4979214;28;36363;-74
2023/08/25 03:43:23;;;;;;;94.78;50.05;;;20.00;99.90;;;;;;4976237;28;38031;-74
2023/08/25 03:45:49;;;;;;;102.03;53.85;;;20.00;99.90;;;;;;4979585;28;39436;-74
2023/08/25 03:48:15;;;;;;;85.70;48.95;;;20.00;99.90;;;;;;4976920;28;39374;-73
2023/08/25 03:50:46;;;;;;;88.90;49.88;;;20.10;99.90;;;;;;4976824;28;36654;-73
2023/08/25 03:53:13;;;;;;;96.85;50.13;;;20.00;99.90;;;;;;4980681;28;38542;-74
2023/08/25 03:55:39;;;;;;;87.97;48.50;;;20.00;99.90;;;;;;4978818;28;38827;-74
2023/08/25 03:58:05;;;;;;;87.68;47.72;;;20.00;99.90;;;;;;4981077;28;38336;-74
2023/08/25 04:00:31;;;;;;;91.78;50.88;;;20.00;99.90;;;;;;4982474;28;37254;-74
2023/08/25 04:02:57;;;;;;;92.18;51.08;;;20.00;99.90;;;;;;4978838;28;37988;-74
2023/08/25 04:05:24;;;;;;;94.78;51.10;;;20.00;99.90;;;;;;4978784;28;39250;-73
2023/08/25 04:07:50;;;;;;;92.07;49.38;;;20.00;99.90;;;;;;4995240;28;38584;-74
2023/08/25 04:10:16;;;;;;;82.80;47.30;;;20.00;99.90;;;;;;4977763;28;36784;-74
2023/08/25 04:12:42;;;;;;;94.43;49.83;;;19.90;99.90;;;;;;4980698;28;39458;-74
2023/08/25 04:15:09;;;;;;;89.13;48.65;;;20.00;99.90;;;;;;4980014;28;38611;-73
2023/08/25 04:17:35;;;;;;;102.70;50.95;;;20.00;99.90;;;;;;4979741;28;37184;-74
2023/08/25 04:20:02;;;;;;;80.07;45.67;;;20.00;99.90;;;;;;4977827;28;36586;-74
2023/08/25 04:22:28;;;;;;;79.47;45.40;;;19.90;99.90;;;;;;4983815;28;39865;-74
2023/08/25 04:24:54;;;;;;;80.63;44.03;;;19.90;99.90;;;;;;4990523;28;38827;-74
2023/08/25 04:27:20;;;;;;;73.15;44.00;;;20.00;99.90;;;;;;4988750;28;38989;-74
2023/08/25 04:29:46;;;;;;;102.60;49.63;;;20.00;99.90;;;;;;4988585;28;36403;-73
2023/08/25 04:32:14;;;;;;;131.55;59.58;;;20.00;99.90;;;;;;4987129;28;39917;-74
2023/08/25 04:34:40;;;;;;;109.90;57.75;;;20.00;99.90;;;;;;4991133;28;38829;-72
2023/08/25 04:37:06;;;;;;;89.80;51.60;;;20.00;99.90;;;;;;4986452;28;37280;-73
2023/08/25 04:39:32;;;;;;;83.10;48.50;;;20.00;99.90;;;;;;4986403;28;37398;-73
2023/08/25 04:41:58;;;;;;;76.28;46.75;;;20.00;99.90;;;;;;4986498;28;37757;-73
2023/08/25 04:44:24;;;;;;;94.82;52.28;;;20.00;99.90;;;;;;4989330;28;37722;-73
2023/08/25 04:46:50;;;;;;;90.13;55.15;;;20.00;99.90;;;;;;4991728;28;39248;-73
2023/08/25 04:49:16;;;;;;;84.10;52.60;;;20.00;99.90;;;;;;4990106;28;36312;-73
2023/08/25 04:51:43;;;;;;;83.63;48.70;;;20.00;99.90;;;;;;4990415;28;38925;-72
2023/08/25 04:56:55;;;;;;;89.50;53.97;;;20.00;99.90;;;;;;4979680;28;39452;-73
2023/08/25 04:59:21;;;;;;;111.32;61.00;;;20.00;99.90;;;;;;4976139;28;36942;-73
2023/08/25 05:01:53;;;;;;;100.82;58.58;;;20.00;99.90;;;;;;4970950;28;39807;-73
2023/08/25 05:04:20;;;;;;;97.00;54.97;;;20.00;99.90;;;;;;4982565;28;38920;-74
2023/08/25 05:06:46;;;;;;;94.85;52.45;;;20.00;99.90;;;;;;4977225;28;39198;-73
2023/08/25 05:09:15;;;;;;;86.25;51.72;;;20.00;99.90;;;;;;4974027;28;37067;-74
2023/08/25 05:11:41;;;;;;;86.55;53.80;;;20.00;99.90;;;;;;4975419;28;37975;-73
2023/08/25 05:14:07;;;;;;;88.70;53.47;;;20.00;99.90;;;;;;4976732;28;39031;-73
2023/08/25 05:16:33;;;;;;;76.60;51.00;;;20.00;99.90;;;;;;4977482;28;37382;-73
2023/08/25 05:18:59;;;;;;;86.75;52.10;;;20.00;99.90;;;;;;4977502;28;35139;-73
2023/08/25 05:21:25;;;;;;;82.07;52.22;;;20.00;99.90;;;;;;4975553;28;38827;-73
2023/08/25 05:24:22;;;;;;;89.32;56.75;;;20.00;99.90;;;;;;4977754;28;38950;-73
2023/08/25 05:26:52;;;;;;;89.43;58.15;;;20.00;99.90;;;;;;4977859;28;48325;-72
2023/08/25 05:29:26;;;;;;;78.38;55.20;;;20.00;99.90;;;;;;4976100;28;36410;-73
2023/08/25 05:31:53;;;;;;;93.07;58.58;;;20.00;99.90;;;;;;4977473;28;37152;-72
2023/08/25 05:34:19;;;;;;;87.72;56.58;;;20.00;99.90;;;;;;4975548;28;39410;-71
2023/08/25 05:36:45;;;;;;;84.07;56.08;;;20.00;99.90;;;;;;4977109;28;38292;-73
2023/08/25 05:39:12;;;;;;;91.10;57.78;;;20.10;99.90;;;;;;4973930;28;37449;-72
2023/08/25 05:41:38;;;;;;;114.25;65.20;;;20.10;99.90;;;;;;4975240;28;41934;-73
2023/08/25 05:44:04;;;;;;;91.40;57.78;;;20.10;99.90;;;;;;4974123;28;39439;-72
2023/08/25 05:46:31;;;;;;;81.40;52.92;;;20.10;99.90;;;;;;4979174;28;37628;-73
2023/08/25 05:48:58;;;;;;;96.78;54.97;;;20.20;99.90;;;;;;4975767;28;36949;-73
2023/08/25 05:51:25;;;;;;;102.72;60.22;;;20.30;99.90;;;;;;4976087;28;38647;-73
2023/08/25 05:53:51;;;;;;;87.43;55.25;;;20.40;99.90;;;;;;4977443;28;37644;-73
2023/08/25 05:56:18;;;;;;;76.70;51.05;;;20.40;99.90;;;;;;4979740;28;39235;-73
2023/08/25 05:58:44;;;;;;;84.68;53.03;;;20.40;99.90;;;;;;4978728;28;35804;-73
2023/08/25 06:01:11;;;;;;;74.05;48.38;;;20.50;99.90;;;;;;4976147;28;38649;-73
2023/08/25 06:03:38;;;;;;;77.63;48.47;;;20.50;99.90;;;;;;4979528;28;39954;-73
2023/08/25 06:06:04;;;;;;;68.40;43.90;;;20.50;99.90;;;;;;4975288;28;38202;-74
2023/08/25 06:08:31;;;;;;;59.25;38.75;;;20.40;99.90;;;;;;4976862;28;37620;-74
2023/08/25 06:10:57;;;;;;;54.90;38.50;;;20.40;99.90;;;;;;4974254;28;38971;-74
2023/08/25 06:13:26;;;;;;;50.85;35.60;;;20.40;99.90;;;;;;4984505;28;38625;-73
2023/08/25 06:15:52;;;;;;;58.80;38.17;;;20.40;99.90;;;;;;4976892;28;38248;-74
2023/08/25 06:18:18;;;;;;;52.95;34.97;;;20.40;99.90;;;;;;4971786;28;35511;-74
2023/08/25 06:20:45;;;;;;;45.63;31.98;;;20.40;99.90;;;;;;4972459;28;39463;-74
2023/08/25 06:23:13;;;;;;;53.58;32.63;;;20.50;99.90;;;;;;4976550;28;37727;-75
2023/08/25 06:25:39;;;;;;;45.60;29.42;;;20.60;99.90;;;;;;4987944;28;37581;-75
2023/08/25 06:28:05;;;;;;;43.15;27.88;;;20.50;99.90;;;;;;4962294;28;39700;-75
2023/08/25 06:30:32;;;;;;;38.40;26.67;;;20.40;99.90;;;;;;4972363;28;39304;-74
2023/08/25 06:32:58;;;;;;;42.05;29.10;;;20.50;99.90;;;;;;4973432;28;37606;-75
2023/08/25 06:35:25;;;;;;;51.22;32.55;;;20.50;99.90;;;;;;4975044;28;38266;-74
2023/08/25 06:37:51;;;;;;;45.45;29.90;;;20.50;99.90;;;;;;4985625;28;36020;-74
2023/08/25 06:40:17;;;;;;;48.90;30.10;;;20.50;99.90;;;;;;4985919;28;38839;-74
2023/08/25 06:42:43;;;;;;;42.65;27.75;;;20.50;99.90;;;;;;4986436;28;38657;-74
2023/08/25 06:45:12;;;;;;;43.60;28.83;;;20.60;99.90;;;;;;4982086;28;37378;-74
2023/08/25 06:47:38;;;;;;;35.03;26.10;;;20.60;99.90;;;;;;4981009;28;37655;-74
2023/08/25 06:50:05;;;;;;;40.58;25.15;;;20.60;99.90;;;;;;4979068;28;38571;-75
2023/08/25 06:52:32;;;;;;;33.05;22.63;;;20.60;99.90;;;;;;4991934;28;37688;-74
2023/08/25 06:54:58;;;;;;;38.30;22.77;;;20.60;99.90;;;;;;4979673;28;37638;-74
2023/08/25 06:57:24;;;;;;;33.10;20.02;;;20.70;99.90;;;;;;4985555;28;38709;-74
2023/08/25 06:59:51;;;;;;;31.58;20.13;;;20.70;99.90;;;;;;4980622;28;37691;-74
2023/08/25 07:02:17;;;;;;;23.42;15.05;;;20.60;99.90;;;;;;4980678;28;37578;-74
2023/08/25 07:04:43;;;;;;;28.27;16.48;;;20.60;99.90;;;;;;4973608;28;38686;-76
2023/08/25 07:07:09;;;;;;;29.10;16.85;;;20.70;99.90;;;;;;4976362;28;37015;-75
2023/08/25 07:09:35;;;;;;;32.63;18.27;;;20.80;99.90;;;;;;4975759;28;37572;-75
2023/08/25 07:12:04;;;;;;;25.45;15.85;;;20.90;99.90;;;;;;4982825;28;39116;-75
2023/08/25 07:14:31;;;;;;;22.63;16.65;;;20.90;99.90;;;;;;4977592;28;37630;-75
2023/08/25 07:16:58;;;;;;;21.13;14.57;;;20.90;99.90;;;;;;4980249;28;37875;-76
2023/08/25 07:19:24;;;;;;;23.20;15.82;;;20.90;99.90;;;;;;4977715;28;37910;-74
2023/08/25 07:21:50;;;;;;;25.38;15.80;;;20.90;99.90;;;;;;4980021;28;39117;-75
2023/08/25 07:24:16;;;;;;;20.58;15.32;;;20.90;99.90;;;;;;4982749;28;39357;-75
2023/08/25 07:26:43;;;;;;;20.50;13.77;;;20.90;99.90;;;;;;4976086;28;38044;-75
2023/08/25 07:29:09;;;;;;;19.50;13.45;;;20.90;99.90;;;;;;4970459;28;38679;-74
2023/08/25 07:31:35;;;;;;;28.67;18.48;;;20.90;99.90;;;;;;4973371;28;37722;-74
2023/08/25 07:34:01;;;;;;;20.83;14.57;;;21.00;99.90;;;;;;4977244;28;39538;-75
2023/08/25 07:36:28;;;;;;;19.02;14.65;;;21.10;99.90;;;;;;4972991;28;37436;-74
2023/08/25 07:38:55;;;;;;;26.90;17.55;;;21.10;99.90;;;;;;4983424;28;38041;-74
2023/08/25 07:41:21;;;;;;;24.55;16.35;;;21.10;99.90;;;;;;4977108;28;37593;-74
2023/08/25 07:43:48;;;;;;;23.67;16.90;;;21.10;99.90;;;;;;4980889;28;38123;-73
2023/08/25 07:46:15;;;;;;;23.98;16.75;;;21.20;99.90;;;;;;4979142;28;36792;-74
2023/08/25 07:48:41;;;;;;;26.85;17.40;;;21.30;99.90;;;;;;4984249;28;39555;-74
2023/08/25 07:51:07;;;;;;;27.40;17.67;;;21.30;99.90;;;;;;4983628;28;37962;-74
2023/08/25 07:53:33;;;;;;;19.83;16.15;;;21.50;99.90;;;;;;4986634;28;38422;-74
2023/08/25 07:55:59;;;;;;;22.50;17.17;;;21.60;99.90;;;;;;4978510;28;36235;-75
2023/08/25 07:58:26;;;;;;;23.40;16.60;;;21.80;99.90;;;;;;4979997;28;36224;-75
2023/08/25 08:00:53;;;;;;;24.83;17.70;;;22.00;99.90;;;;;;4981503;28;38036;-75
2023/08/25 08:03:19;;;;;;;24.40;18.13;;;22.00;99.90;;;;;;4969883;28;37724;-76
2023/08/25 08:05:46;;;;;;;23.77;16.67;;;22.00;99.90;;;;;;4976454;28;36655;-75
2023/08/25 08:08:12;;;;;;;23.10;15.88;;;22.10;99.90;;;;;;4982179;28;37773;-74
2023/08/25 08:10:39;;;;;;;25.38;16.75;;;22.20;99.90;;;;;;4978034;28;40689;-75
2023/08/25 08:13:06;;;;;;;32.70;22.58;;;22.20;99.90;;;;;;4982748;28;37637;-75
2023/08/25 08:15:32;;;;;;;31.85;25.00;;;22.10;99.90;;;;;;4977607;28;36677;-75
2023/08/25 08:17:58;;;;;;;28.27;23.88;;;21.90;99.90;;;;;;4979717;28;38145;-75
2023/08/25 08:20:25;;;;;;;29.83;24.13;;;21.80;99.90;;;;;;4974102;28;38119;-76
2023/08/25 08:22:51;;;;;;;31.73;23.23;;;21.80;99.90;;;;;;4979114;28;38534;-75
2023/08/25 08:25:19;;;;;;;35.03;25.13;;;21.90;99.90;;;;;;4970153;28;37387;-75
2023/08/25 08:27:46;;;;;;;30.95;23.13;;;21.90;99.90;;;;;;4976485;28;38778;-76
2023/08/25 08:30:16;;;;;;;29.90;23.15;;;21.90;99.90;;;;;;4970806;28;36768;-76
2023/08/25 08:32:43;;;;;;;34.88;26.23;;;22.00;99.90;;;;;;4974815;28;38520;-75
2023/08/25 08:35:09;;;;;;;32.05;24.05;;;22.00;99.90;;;;;;4975447;28;36359;-75
2023/08/25 08:37:37;;;;;;;37.97;26.02;;;22.10;99.90;;;;;;4982549;28;37696;-76
2023/08/25 08:40:08;;;;;;;38.38;25.35;;;22.20;99.90;;;;;;4986968;28;36775;-74
2023/08/25 08:42:37;;;;;;;30.98;23.48;;;22.20;99.90;;;;;;4973782;28;47468;-75
2023/08/25 08:45:08;;;;;;;30.83;25.38;;;22.30;99.90;;;;;;4972858;28;36252;-76
2023/08/25 08:47:35;;;;;;;26.63;23.10;;;22.20;99.90;;;;;;4982669;28;47285;-77
2023/08/25 08:50:02;;;;;;;29.70;23.58;;;22.20;99.90;;;;;;4966984;28;37739;-75
2023/08/25 08:52:29;;;;;;;30.63;23.83;;;22.10;99.90;;;;;;4978517;28;37799;-75
2023/08/25 08:55:00;;;;;;;26.83;21.15;;;22.10;99.90;;;;;;4982372;28;37272;-75
2023/08/25 08:57:28;;;;;;;30.07;22.13;;;22.20;99.90;;;;;;4981957;28;38065;-76
2023/08/25 09:00:01;;;;;;;29.30;21.17;;;22.40;99.90;;;;;;4974622;28;38488;-75
2023/08/25 09:02:29;;;;;;;31.83;21.13;;;22.50;99.90;;;;;;4978604;28;37669;-74
2023/08/25 09:05:01;;;;;;;27.45;21.58;;;22.60;99.90;;;;;;4983542;28;38347;-76
2023/08/25 09:07:31;;;;;;;23.40;18.25;;;23.20;99.90;;;;;;4978751;28;37863;-76
2023/08/25 09:09:58;;;;;;;28.83;19.77;;;23.50;99.90;;;;;;4983358;28;36399;-76
2023/08/25 09:12:24;;;;;;;32.85;21.55;;;23.40;99.90;;;;;;4978997;28;38297;-76
2023/08/25 09:14:50;;;;;;;26.75;19.77;;;23.50;99.90;;;;;;4983772;28;38097;-77
2023/08/25 09:17:16;;;;;;;22.55;17.73;;;23.30;99.90;;;;;;4983922;28;39738;-77
2023/08/25 09:19:43;;;;;;;26.85;19.80;;;23.20;99.90;;;;;;4986994;28;39023;-77
2023/08/25 09:22:15;;;;;;;22.10;18.20;;;23.20;99.90;;;;;;4987008;28;38125;-77
2023/08/25 09:24:44;;;;;;;;;;;23.10;99.90;;;;;;4985150;28;36940;-77
2023/08/25 09:27:23;;;;;;;26.15;18.23;;;23.00;99.90;;;;;;4979361;28;38078;-77
2023/08/25 09:30:06;;;;;;;26.45;20.33;;;22.80;99.90;;;;;;4981342;28;37909;-76
2023/08/25 09:32:33;;;;;;;28.63;21.75;;;22.70;99.90;;;;;;4983688;28;37717;-77
2023/08/25 09:35:13;;;;;;;25.95;19.02;;;22.50;99.90;;;;;;4985915;28;36833;-77
2023/08/25 09:37:43;;;;;;;25.55;20.15;;;22.50;99.90;;;;;;4979436;28;47169;-77
2023/08/25 09:40:15;;;;;;;25.05;19.70;;;22.40;99.90;;;;;;4978967;28;37985;-77
2023/08/25 09:42:41;;;;;;;25.17;19.73;;;22.40;99.90;;;;;;4985094;28;38473;-77
2023/08/25 09:45:09;;;;;;;28.15;21.40;;;22.30;99.90;;;;;;4985693;28;37293;-77
2023/08/25 09:47:36;;;;;;;27.67;21.30;;;22.30;99.90;;;;;;4984710;28;37933;-76
2023/08/25 09:50:02;;;;;;;31.55;23.10;;;22.30;99.90;;;;;;4985870;28;37807;-76
2023/08/25 09:52:34;;;;;;;29.23;20.65;;;22.30;99.90;;;;;;4985461;28;39597;-76
2023/08/25 09:55:00;;;;;;;22.63;18.23;;;22.30;99.90;;;;;;4987171;28;36959;-76
2023/08/25 09:57:27;;;;;;;26.98;20.30;;;22.50;99.90;;;;;;4984572;28;38644;-76
2023/08/25 09:59:54;;;;;;;23.05;18.77;;;22.50;99.90;;;;;;4979164;28;37004;-76
2023/08/25 10:02:21;;;;;;;21.42;17.38;;;22.60;99.90;;;;;;4987430;28;37957;-76
2023/08/25 10:04:49;;;;;;;17.95;16.15;;;22.60;99.90;;;;;;4984358;28;37293;-76
2023/08/25 10:07:16;;;;;;;21.27;16.73;;;22.70;99.90;;;;;;4984241;28;39846;-76
2023/08/25 10:09:45;;;;;;;26.67;19.15;;;22.80;99.90;;;;;;4977214;28;38866;-76
2023/08/25 10:12:13;;;;;;;25.13;17.10;;;22.80;99.90;;;;;;4976738;28;37357;-81
2023/08/25 10:14:40;;;;;;;19.80;16.90;;;22.90;99.90;;;;;;4989665;28;37181;-82
2023/08/25 10:17:09;;;;;;;18.45;15.00;;;23.20;99.90;;;;;;4965103;28;39952;-82
2023/08/25 10:19:38;;;;;;;22.50;15.60;;;23.30;99.90;;;;;;4986100;28;39013;-81
2023/08/25 10:22:06;;;;;;;19.08;13.07;;;23.40;99.90;;;;;;4981681;28;38862;-81
2023/08/25 10:24:36;;;;;;;21.27;15.15;;;23.30;99.90;;;;;;4987774;28;36441;-78
2023/08/25 10:27:02;;;;;;;23.23;14.20;;;23.40;99.90;;;;;;4978514;28;39482;-79
2023/08/25 10:29:29;;;;;;;21.40;12.93;;;23.30;99.90;;;;;;4981834;28;39824;-79
2023/08/25 10:32:02;;;;;;;16.05;10.73;;;23.20;99.90;;;;;;4974881;28;39193;-78
2023/08/25 10:34:35;;;;;;;23.30;12.68;;;23.10;99.90;;;;;;4984252;28;46979;-75
2023/08/25 10:37:23;;;;;;;22.38;12.95;;;23.00;99.90;;;;;;4982878;28;39648;-76
2023/08/25 10:39:57;;;;;;;17.38;11.70;;;22.90;99.90;;;;;;4983235;28;47369;-77
2023/08/25 10:42:30;;;;;;;22.55;12.05;;;22.90;99.90;;;;;;4983296;28;40101;-75
2023/08/25 10:45:06;;;;;;;15.20;10.25;;;22.80;99.90;;;;;;4984050;28;36902;-80
2023/08/25 10:47:38;;;;;;;18.60;10.90;;;22.90;99.90;;;;;;4980353;28;48373;-82
2023/08/25 10:50:07;;;;;;;20.23;12.35;;;23.00;99.90;;;;;;4983051;28;39550;-80
2023/08/25 10:52:34;;;;;;;15.25;11.18;;;22.90;99.90;;;;;;4980868;28;39755;-81
2023/08/25 10:55:24;;;;;;;18.92;11.50;;;22.80;99.90;;;;;;4964791;28;35695;-81
2023/08/25 10:57:53;;;;;;;19.33;11.10;;;23.00;99.90;;;;;;4977235;28;46979;-81
2023/08/25 11:00:28;;;;;;;20.90;12.68;;;23.10;99.90;;;;;;4983557;28;39992;-81
2023/08/25 11:02:55;;;;;;;19.70;12.50;;;23.00;99.90;;;;;;4982257;28;47319;-81
2023/08/25 11:05:33;;;;;;;17.30;12.25;;;22.90;99.90;;;;;;4981481;28;37598;-80
2023/08/25 11:08:06;;;;;;;16.92;11.10;;;23.00;99.90;;;;;;4983589;28;39791;-81
2023/08/25 11:10:34;;;;;;;18.42;11.57;;;23.00;99.90;;;;;;4971362;28;48063;-81
2023/08/25 11:13:07;;;;;;;13.90;8.82;;;23.10;99.90;;;;;;4978675;28;38712;-81
2023/08/25 11:15:38;;;;;;;17.30;11.60;;;23.30;99.90;;;;;;4990066;28;47066;-81
2023/08/25 11:18:04;;;;;;;22.05;13.00;;;23.40;99.90;;;;;;4987363;28;40624;-81
2023/08/25 11:20:31;;;;;;;16.73;11.18;;;23.50;99.90;;;;;;4982441;28;39122;-81
2023/08/25 11:22:59;;;;;;;19.15;10.10;;;23.50;99.90;;;;;;4981462;28;38198;-81
2023/08/25 11:25:27;;;;;;;17.15;11.27;;;23.70;99.90;;;;;;4978022;28;36910;-81
2023/08/25 11:27:54;;;;;;;20.77;12.30;;;23.90;99.90;;;;;;4979634;28;39598;-79
2023/08/25 11:30:21;;;;;;;17.70;11.15;;;24.10;99.90;;;;;;4981605;28;38752;-78
2023/08/25 11:32:48;;;;;;;12.27;9.82;;;24.20;99.90;;;;;;4978941;28;38090;-76
2023/08/25 11:35:15;;;;;;;17.50;10.15;;;24.00;99.90;;;;;;4982858;28;38458;-79
2023/08/25 11:37:41;;;;;;;16.83;9.30;;;24.00;99.90;;;;;;4983959;28;38916;-78
2023/08/25 11:40:14;;;;;;;14.85;8.82;;;24.00;99.90;;;;;;4994103;28;38224;-79
2023/08/25 11:42:40;;;;;;;17.60;8.27;;;24.30;99.90;;;;;;4982876;28;37404;-78
2023/08/25 11:45:08;;;;;;;14.73;8.07;;;24.60;99.90;;;;;;4986516;28;36274;-76
2023/08/25 11:47:35;;;;;;;17.90;8.98;;;25.00;99.90;;;;;;4987140;28;38306;-77
2023/08/25 11:50:04;;;;;;;13.77;8.90;;;24.90;99.90;;;;;;4984584;28;39501;-76
2023/08/25 11:52:34;;;;;;;15.18;10.27;;;24.70;99.90;;;;;;4982189;28;37272;-76
2023/08/25 11:55:00;;;;;;;17.20;11.57;;;24.40;99.90;;;;;;4984119;28;37929;-75
2023/08/25 11:57:37;;;;;;;18.10;11.45;;;24.20;99.90;;;;;;4978275;28;39376;-76
2023/08/25 12:00:05;;;;;;;17.92;12.07;;;24.00;99.90;;;;;;4987018;28;39566;-78
2023/08/25 12:02:32;;;;;;;17.15;11.25;;;23.90;99.90;;;;;;4983033;28;37700;-76
2023/08/25 12:05:03;;;;;;;21.05;14.00;;;23.80;99.90;;;;;;4986596;28;38236;-75
2023/08/25 12:07:45;;;;;;;21.27;13.13;;;23.80;99.90;;;;;;5051308;27;21286;-76
2023/08/25 12:10:17;;;;;;;22.02;14.93;;;23.80;99.90;;;;;;5037158;28;37219;-77
2023/08/25 12:12:45;;;;;;;27.45;17.75;;;23.80;99.90;;;;;;5026732;28;39212;-76
2023/08/25 12:15:11;;;;;;;21.83;15.77;;;23.60;99.90;;;;;;5033966;28;39645;-76
2023/08/25 12:17:39;;;;;;;24.75;15.88;;;23.30;99.90;;;;;;5029895;28;37718;-76
2023/08/25 12:20:16;;;;;;;20.20;14.88;;;23.20;99.90;;;;;;5031449;28;37569;-76
2023/08/25 12:22:59;;;;;;;26.05;13.77;;;23.30;99.90;;;;;;5031289;28;48711;-75
2023/08/25 12:25:25;;;;;;;23.75;14.77;;;23.30;99.90;;;;;;5027849;28;36445;-76
2023/08/25 12:27:52;;;;;;;23.00;14.23;;;23.30;99.90;;;;;;5025897;28;37409;-76
2023/08/25 12:30:18;;;;;;;22.95;13.98;;;23.10;99.90;;;;;;5031711;28;37119;-76
2023/08/25 12:32:44;;;;;;;22.38;12.25;;;22.90;99.90;;;;;;5035433;28;36411;-76
2023/08/25 12:35:10;;;;;;;18.63;13.40;;;22.90;99.90;;;;;;5031559;28;38563;-77